createdAt,value
2022-10-31T00:01:39.709Z,16.80
2022-10-31T00:04:34.342Z,16.80
2022-10-31T00:07:28.816Z,16.90
2022-10-31T00:10:23.296Z,16.90
2022-10-31T00:13:18.290Z,16.90
2022-10-31T00:16:24.135Z,16.90
2022-10-31T00:19:18.581Z,16.90
2022-10-31T00:22:12.983Z,16.90
2022-10-31T00:25:07.561Z,16.90
2022-10-31T00:28:02.196Z,16.80
2022-10-31T00:30:56.836Z,16.90
2022-10-31T00:33:51.386Z,16.80
2022-10-31T00:36:45.960Z,16.80
2022-10-31T00:39:40.278Z,16.80
2022-10-31T00:42:34.832Z,16.80
2022-10-31T00:45:29.260Z,16.80
2022-10-31T00:48:23.621Z,16.80
2022-10-31T00:51:18.062Z,17.00
2022-10-31T00:54:12.651Z,17.10
2022-10-31T00:57:06.946Z,17.20
2022-10-31T01:00:01.268Z,17.20
2022-10-31T01:02:55.801Z,17.10
2022-10-31T01:06:04.207Z,17.00
2022-10-31T01:08:58.502Z,16.90
2022-10-31T01:11:52.862Z,16.70
2022-10-31T01:14:47.965Z,16.60
2022-10-31T01:17:42.683Z,16.70
2022-10-31T01:20:37.044Z,16.70
2022-10-31T01:23:32.399Z,16.70
2022-10-31T01:26:29.085Z,16.70
2022-10-31T01:29:23.710Z,16.70
2022-10-31T01:32:18.176Z,16.70
2022-10-31T01:35:12.781Z,16.60
2022-10-31T01:38:07.200Z,16.60
2022-10-31T01:41:01.590Z,16.70
2022-10-31T01:43:57.995Z,16.80
2022-10-31T01:47:08.025Z,16.90
2022-10-31T01:50:07.053Z,16.80
2022-10-31T01:53:03.353Z,16.90
2022-10-31T01:55:57.654Z,16.90
2022-10-31T01:58:52.126Z,16.90
2022-10-31T02:01:46.602Z,17.00
2022-10-31T02:04:42.002Z,16.80
2022-10-31T02:08:28.542Z,16.70
2022-10-31T02:11:26.283Z,16.70
2022-10-31T02:14:21.220Z,16.60
2022-10-31T02:17:16.086Z,16.70
2022-10-31T02:20:18.254Z,16.60
2022-10-31T02:23:34.131Z,16.50
2022-10-31T02:26:46.258Z,16.60
2022-10-31T02:29:58.825Z,16.60
2022-10-31T02:32:55.949Z,16.60
2022-10-31T02:36:06.008Z,16.70
2022-10-31T02:39:16.895Z,16.70
2022-10-31T02:42:29.509Z,16.70
2022-10-31T02:45:45.733Z,16.60
2022-10-31T02:48:42.581Z,16.70
2022-10-31T02:51:37.289Z,16.80
2022-10-31T02:54:32.373Z,16.90
2022-10-31T02:57:33.322Z,16.90
2022-10-31T03:00:28.031Z,17.00
2022-10-31T03:03:48.171Z,17.10
2022-10-31T03:06:54.739Z,17.20
2022-10-31T03:10:18.060Z,17.30
2022-10-31T03:13:32.828Z,17.50
2022-10-31T03:16:33.137Z,17.60
2022-10-31T03:19:35.700Z,17.80
2022-10-31T03:22:33.862Z,17.80
2022-10-31T03:25:29.659Z,17.80
2022-10-31T03:28:31.276Z,17.70
2022-10-31T03:31:31.836Z,17.70
2022-10-31T03:34:26.478Z,17.80
2022-10-31T03:37:23.533Z,17.60
2022-10-31T03:40:19.211Z,17.60
2022-10-31T03:43:19.421Z,17.70
2022-10-31T03:46:14.862Z,17.70
2022-10-31T03:49:09.271Z,17.60
2022-10-31T03:52:25.903Z,17.60
2022-10-31T03:55:29.666Z,17.70
2022-10-31T03:58:45.759Z,17.70
2022-10-31T04:01:46.149Z,17.70
2022-10-31T04:04:41.610Z,17.80
2022-10-31T04:07:41.666Z,17.80
2022-10-31T04:10:37.673Z,17.80
2022-10-31T04:13:34.705Z,17.80
2022-10-31T04:16:29.967Z,17.80
2022-10-31T04:19:24.431Z,17.90
2022-10-31T04:22:18.775Z,18.00
2022-10-31T04:25:13.145Z,18.00
2022-10-31T04:28:07.551Z,18.00
2022-10-31T04:31:02.315Z,18.10
2022-10-31T04:33:56.672Z,18.30
2022-10-31T04:36:51.066Z,18.20
2022-10-31T04:39:45.392Z,18.30
2022-10-31T04:42:39.814Z,18.30
2022-10-31T04:45:34.170Z,18.10
2022-10-31T04:48:28.700Z,18.10
2022-10-31T04:51:22.995Z,17.80
2022-10-31T04:54:17.488Z,17.70
2022-10-31T04:57:11.850Z,17.60
2022-10-31T05:00:06.447Z,17.60
2022-10-31T05:03:01.624Z,17.50
2022-10-31T05:05:56.405Z,17.30
2022-10-31T05:08:50.845Z,17.10
2022-10-31T05:11:45.382Z,17.00
2022-10-31T05:14:41.493Z,16.80
2022-10-31T05:17:37.883Z,16.80
2022-10-31T05:20:33.463Z,16.70
2022-10-31T05:23:27.890Z,16.70
2022-10-31T05:26:22.191Z,16.70
2022-10-31T05:29:16.682Z,16.60
2022-10-31T05:32:11.018Z,16.60
2022-10-31T05:35:05.765Z,16.60
2022-10-31T05:38:01.005Z,16.60
2022-10-31T05:41:02.427Z,16.60
2022-10-31T05:43:56.816Z,16.50
2022-10-31T05:46:51.329Z,16.50
2022-10-31T05:49:45.625Z,16.40
2022-10-31T05:52:40.187Z,16.40
2022-10-31T05:55:35.133Z,16.50
2022-10-31T05:58:29.522Z,16.60
2022-10-31T06:01:24.093Z,16.60
2022-10-31T06:04:18.872Z,16.70
2022-10-31T06:07:13.314Z,16.70
2022-10-31T06:10:10.134Z,16.70
2022-10-31T06:13:04.619Z,16.60
2022-10-31T06:15:59.347Z,16.50
2022-10-31T06:18:53.930Z,16.50
2022-10-31T06:21:48.446Z,16.50
2022-10-31T06:24:42.886Z,16.60
2022-10-31T06:27:37.294Z,16.60
2022-10-31T06:30:32.030Z,16.50
2022-10-31T06:33:26.518Z,16.40
2022-10-31T06:36:21.036Z,16.30
2022-10-31T06:39:15.857Z,16.30
2022-10-31T06:42:10.278Z,16.20
2022-10-31T06:45:04.911Z,16.10
2022-10-31T06:51:14.628Z,16.00
2022-10-31T06:54:09.061Z,15.70
2022-10-31T06:57:03.516Z,15.60
2022-10-31T06:59:57.787Z,15.60
2022-10-31T07:03:03.306Z,15.50
2022-10-31T07:06:00.857Z,15.40
2022-10-31T07:08:55.262Z,15.20
2022-10-31T07:11:49.632Z,15.10
2022-10-31T07:14:44.138Z,14.90
2022-10-31T07:17:38.590Z,14.70
2022-10-31T07:20:33.968Z,14.40
2022-10-31T07:23:28.348Z,14.20
2022-10-31T07:26:22.664Z,14.10
2022-10-31T07:29:17.003Z,14.00
2022-10-31T07:32:11.431Z,13.90
2022-10-31T07:35:06.175Z,13.90
2022-10-31T07:38:08.766Z,13.90
2022-10-31T07:41:03.230Z,13.90
2022-10-31T07:43:57.556Z,13.90
2022-10-31T07:46:51.906Z,13.90
2022-10-31T07:49:46.543Z,14.00
2022-10-31T07:52:41.066Z,14.00
2022-10-31T07:55:36.136Z,13.90
2022-10-31T07:58:31.630Z,13.90
2022-10-31T08:01:26.135Z,13.90
2022-10-31T08:04:20.557Z,13.70
2022-10-31T08:07:14.918Z,13.60
2022-10-31T08:10:09.494Z,13.50
2022-10-31T08:13:14.955Z,13.50
2022-10-31T08:16:09.639Z,13.60
2022-10-31T08:19:04.083Z,13.60
2022-10-31T08:21:58.518Z,13.60
2022-10-31T08:24:52.951Z,13.60
2022-10-31T08:27:55.514Z,13.60
2022-10-31T08:30:49.946Z,13.70
2022-10-31T08:33:44.280Z,13.70
2022-10-31T08:36:38.739Z,13.80
2022-10-31T08:39:33.145Z,13.90
2022-10-31T08:42:27.558Z,14.00
2022-10-31T08:45:22.518Z,14.00
2022-10-31T08:48:19.193Z,14.10
2022-10-31T08:51:14.327Z,14.10
2022-10-31T08:54:08.850Z,14.20
2022-10-31T08:57:03.225Z,14.20
2022-10-31T08:59:57.609Z,14.20
2022-10-31T09:02:58.801Z,14.30
2022-10-31T09:05:57.120Z,14.40
2022-10-31T09:08:51.561Z,14.40
2022-10-31T09:11:45.918Z,14.50
2022-10-31T09:14:40.317Z,14.50
2022-10-31T09:17:34.798Z,14.50
2022-10-31T09:20:29.970Z,14.50
2022-10-31T09:23:25.710Z,14.50
2022-10-31T09:26:20.112Z,14.40
2022-10-31T09:29:14.523Z,14.30
2022-10-31T09:32:08.928Z,14.30
2022-10-31T09:35:03.620Z,14.20
2022-10-31T09:38:03.161Z,14.10
2022-10-31T09:41:16.216Z,14.20
2022-10-31T09:44:51.722Z,14.20
2022-10-31T09:48:12.589Z,14.20
2022-10-31T09:51:37.239Z,14.20
2022-10-31T09:54:46.150Z,14.30
2022-10-31T09:57:41.684Z,14.30
2022-10-31T10:00:37.216Z,14.40
2022-10-31T10:03:52.330Z,14.30
2022-10-31T10:06:52.431Z,14.30
2022-10-31T10:09:54.139Z,14.30
2022-10-31T10:12:57.603Z,14.20
2022-10-31T10:16:01.158Z,14.20
2022-10-31T10:19:25.826Z,14.20
2022-10-31T10:22:59.829Z,14.30
2022-10-31T10:26:11.312Z,14.20
2022-10-31T10:29:42.018Z,14.20
2022-10-31T10:33:12.042Z,14.20
2022-10-31T10:36:20.558Z,14.30
2022-10-31T10:39:26.655Z,14.20
2022-10-31T10:42:39.006Z,14.20
2022-10-31T10:45:51.610Z,14.20
2022-10-31T10:49:20.388Z,14.20
2022-10-31T10:52:50.509Z,14.20
2022-10-31T10:55:59.545Z,14.20
2022-10-31T10:58:54.847Z,14.20
2022-10-31T11:01:51.521Z,14.20
2022-10-31T11:04:47.727Z,14.20
2022-10-31T11:07:43.027Z,14.20
2022-10-31T11:10:38.043Z,14.20
2022-10-31T11:13:34.106Z,14.20
2022-10-31T11:16:41.348Z,14.00
2022-10-31T11:19:35.819Z,14.10
2022-10-31T11:22:30.425Z,14.20
2022-10-31T11:25:26.979Z,14.20
2022-10-31T11:28:21.388Z,14.20
2022-10-31T11:31:18.146Z,14.10
2022-10-31T11:34:29.364Z,14.10
2022-10-31T11:37:32.006Z,14.10
2022-10-31T11:40:29.281Z,14.10
2022-10-31T11:43:23.734Z,14.10
2022-10-31T11:46:46.851Z,14.10
2022-10-31T11:49:51.887Z,14.00
2022-10-31T11:52:46.472Z,14.20
2022-10-31T11:55:42.177Z,14.20
2022-10-31T11:58:36.582Z,14.20
2022-10-31T12:01:34.828Z,14.10
2022-10-31T12:04:37.916Z,14.10
2022-10-31T12:07:32.610Z,14.10
2022-10-31T12:10:41.433Z,14.10
2022-10-31T12:13:47.422Z,14.10
2022-10-31T12:17:02.849Z,14.10
2022-10-31T12:20:06.152Z,14.10
2022-10-31T12:23:30.024Z,14.10
2022-10-31T12:26:45.790Z,14.10
2022-10-31T12:30:17.713Z,14.20
2022-10-31T12:33:56.139Z,14.20
2022-10-31T12:37:22.606Z,14.20
2022-10-31T12:41:10.609Z,14.30
2022-10-31T12:44:51.393Z,14.30
2022-10-31T12:48:26.938Z,14.20
2022-10-31T12:51:45.211Z,14.20
2022-10-31T12:55:05.551Z,14.20
2022-10-31T12:58:20.154Z,14.10
2022-10-31T13:01:27.472Z,14.10
2022-10-31T13:04:39.226Z,14.20
2022-10-31T13:07:39.654Z,14.30
2022-10-31T13:10:48.928Z,14.20
2022-10-31T13:14:05.955Z,14.30
2022-10-31T13:17:02.268Z,14.20
2022-10-31T13:20:08.077Z,14.20
2022-10-31T13:23:23.353Z,14.20
2022-10-31T13:26:44.742Z,14.10
2022-10-31T13:29:49.461Z,14.10
2022-10-31T13:32:57.304Z,14.10
2022-10-31T13:36:21.975Z,14.10
2022-10-31T13:39:31.204Z,13.90
2022-10-31T13:42:35.678Z,13.70
2022-10-31T13:45:30.705Z,13.70
2022-10-31T13:48:31.249Z,13.70
2022-10-31T13:51:31.628Z,13.60
2022-10-31T13:54:37.569Z,13.40
2022-10-31T13:57:41.655Z,13.40
2022-10-31T14:00:37.342Z,13.30
2022-10-31T14:03:58.460Z,13.30
2022-10-31T14:07:13.710Z,13.30
2022-10-31T14:10:23.356Z,13.20
2022-10-31T14:13:25.174Z,13.10
2022-10-31T14:16:27.834Z,13.10
2022-10-31T14:19:23.761Z,12.90
2022-10-31T14:22:25.868Z,12.90
2022-10-31T14:25:30.518Z,12.80
2022-10-31T14:28:36.111Z,12.80
2022-10-31T14:31:37.096Z,12.90
2022-10-31T14:34:37.013Z,12.90
2022-10-31T14:37:40.319Z,13.00
2022-10-31T14:41:02.228Z,13.10
2022-10-31T14:44:17.676Z,13.10
2022-10-31T14:47:20.391Z,13.10
2022-10-31T14:50:34.643Z,13.10
2022-10-31T14:53:30.560Z,13.20
2022-10-31T14:56:34.895Z,13.20
2022-10-31T16:23:32.874Z,12.90
2022-10-31T16:26:28.064Z,12.90
2022-10-31T16:29:29.619Z,12.90
2022-10-31T16:33:01.278Z,13.00
2022-10-31T16:36:09.526Z,13.00
2022-10-31T16:39:10.927Z,13.00
2022-10-31T16:42:05.400Z,12.90
2022-10-31T16:44:59.876Z,12.90
2022-10-31T16:47:55.046Z,13.00
2022-10-31T16:50:50.082Z,13.00
2022-10-31T16:53:46.694Z,13.00
2022-10-31T16:56:41.533Z,13.00
2022-10-31T16:59:36.807Z,13.00
2022-10-31T17:02:31.305Z,13.10
2022-10-31T17:05:34.121Z,13.10
2022-10-31T17:08:28.498Z,13.10
2022-10-31T17:11:27.020Z,13.10
2022-10-31T17:14:21.931Z,13.00
2022-10-31T17:17:16.527Z,12.90
2022-10-31T17:20:19.550Z,12.90
2022-10-31T17:23:15.531Z,12.90
2022-10-31T17:26:12.034Z,12.90
2022-10-31T17:29:06.362Z,12.90
2022-10-31T17:32:01.577Z,12.90
2022-10-31T17:34:55.917Z,12.90
2022-10-31T17:37:50.823Z,12.90
2022-10-31T17:40:45.416Z,12.90
2022-10-31T17:43:39.972Z,12.90
2022-10-31T17:46:34.302Z,12.90
2022-10-31T17:49:28.625Z,12.90
2022-10-31T17:52:23.102Z,12.90
2022-10-31T17:55:17.979Z,12.90
2022-10-31T17:58:15.746Z,13.00
2022-10-31T18:01:16.160Z,13.10
2022-10-31T18:04:10.566Z,13.10
2022-10-31T18:07:04.985Z,13.10
2022-10-31T18:09:59.414Z,13.10
2022-10-31T18:12:53.750Z,13.20
2022-10-31T18:15:48.123Z,13.30
2022-10-31T18:18:43.409Z,13.30
2022-10-31T18:21:37.939Z,13.40
2022-10-31T18:24:32.624Z,13.40
2022-10-31T18:27:28.148Z,13.30
2022-10-31T18:30:22.453Z,13.30
2022-10-31T18:33:16.877Z,13.20
2022-10-31T18:36:12.313Z,13.20
2022-10-31T18:39:06.658Z,13.20
2022-10-31T18:42:01.013Z,13.10
2022-10-31T18:44:56.718Z,13.10
2022-10-31T18:47:53.686Z,13.00
2022-10-31T18:50:59.125Z,13.00
2022-10-31T18:53:58.762Z,13.00
2022-10-31T18:56:53.056Z,13.00
2022-10-31T18:59:47.362Z,13.00
2022-10-31T19:02:41.798Z,12.90
2022-10-31T19:05:36.284Z,12.80
2022-10-31T19:08:30.878Z,12.80
2022-10-31T19:11:25.196Z,12.80
2022-10-31T19:14:19.601Z,12.80
2022-10-31T19:17:14.474Z,12.80
2022-10-31T19:20:09.826Z,12.80
2022-10-31T19:23:04.462Z,12.80
2022-10-31T19:26:01.537Z,12.80
2022-10-31T19:28:57.178Z,12.80
2022-10-31T19:31:51.532Z,12.50
2022-10-31T19:34:46.347Z,12.30
2022-10-31T19:37:41.973Z,12.20
2022-10-31T19:40:37.624Z,12.20
2022-10-31T19:43:32.075Z,12.30
2022-10-31T19:46:52.413Z,12.40
2022-10-31T19:49:41.171Z,12.40
2022-10-31T19:52:36.886Z,12.30
2022-10-31T19:55:31.323Z,12.30
2022-10-31T19:58:25.699Z,12.20
2022-10-31T20:01:25.481Z,12.30
2022-10-31T20:04:19.874Z,12.30
2022-10-31T20:07:14.679Z,12.30
2022-10-31T20:10:09.988Z,12.30
2022-10-31T20:13:04.405Z,12.20
2022-10-31T20:16:07.593Z,12.20
2022-10-31T20:19:02.267Z,12.20
2022-10-31T20:21:56.811Z,12.20
2022-10-31T20:24:51.563Z,12.10
2022-10-31T20:27:46.075Z,12.20
2022-10-31T20:30:40.424Z,12.30
2022-10-31T20:33:34.703Z,12.30
2022-10-31T20:36:32.596Z,12.30
2022-10-31T20:39:26.867Z,12.30
2022-10-31T20:42:23.179Z,12.20
2022-10-31T20:45:17.597Z,12.20
2022-10-31T20:48:11.938Z,12.30
2022-10-31T20:54:15.686Z,12.30
2022-10-31T20:57:09.980Z,12.40
2022-10-31T21:00:05.405Z,12.50
2022-10-31T21:02:59.974Z,12.50
2022-10-31T21:05:59.713Z,12.50
2022-10-31T21:08:55.156Z,12.50
2022-10-31T21:11:49.491Z,12.50
2022-10-31T21:14:44.014Z,12.60
2022-10-31T21:17:38.456Z,12.70
2022-10-31T21:20:32.782Z,12.60
2022-10-31T21:23:27.248Z,12.60
2022-10-31T21:26:23.966Z,12.60
2022-10-31T21:29:20.005Z,12.50
2022-10-31T21:32:14.395Z,12.50
2022-10-31T21:35:09.172Z,12.60
2022-10-31T21:38:03.777Z,12.70
2022-10-31T21:41:03.048Z,12.80
2022-10-31T21:43:57.550Z,12.70
2022-10-31T21:46:51.875Z,12.70
2022-10-31T21:49:46.675Z,12.70
2022-10-31T21:52:41.007Z,12.70
2022-10-31T21:55:35.398Z,12.70
2022-10-31T21:58:34.739Z,12.80
2022-10-31T22:01:32.255Z,12.80
2022-10-31T22:04:26.788Z,12.70
2022-10-31T22:07:21.523Z,12.60
2022-10-31T22:10:15.892Z,12.50
2022-10-31T22:13:10.225Z,12.30
2022-10-31T22:16:13.124Z,12.10
2022-10-31T22:19:09.019Z,12.00
2022-10-31T22:22:03.604Z,12.00
2022-10-31T22:24:57.934Z,12.00
2022-10-31T22:27:54.267Z,12.00
2022-10-31T22:30:48.703Z,12.00
2022-10-31T22:33:43.590Z,12.00
2022-10-31T22:36:39.014Z,12.00
2022-10-31T22:39:33.473Z,12.00
2022-10-31T22:42:28.021Z,12.10
2022-10-31T22:45:22.368Z,12.20
2022-10-31T22:48:16.747Z,12.30
2022-10-31T22:51:16.949Z,12.30
2022-10-31T22:54:19.056Z,12.30
2022-10-31T22:57:13.613Z,12.40
2022-10-31T23:00:09.739Z,12.50
2022-10-31T23:03:04.347Z,12.80
2022-10-31T23:06:03.309Z,13.10
2022-10-31T23:08:57.722Z,13.30
2022-10-31T23:11:52.036Z,13.50
2022-10-31T23:14:46.502Z,13.80
2022-10-31T23:17:40.776Z,14.00
2022-10-31T23:20:35.154Z,14.20
2022-10-31T23:23:30.674Z,14.20
2022-10-31T23:26:43.155Z,14.10
2022-10-31T23:29:55.182Z,14.00
2022-10-31T23:32:49.661Z,13.90
2022-10-31T23:35:46.300Z,13.80
2022-10-31T23:38:40.646Z,13.70
2022-10-31T23:41:35.572Z,13.60
2022-10-31T23:44:30.164Z,13.60
2022-10-31T23:47:25.241Z,13.60
2022-10-31T23:50:19.610Z,13.80
2022-10-31T23:53:13.954Z,14.00
2022-10-31T23:56:08.902Z,14.20
2022-10-31T23:59:03.976Z,14.50
